sensor_id;sensor_type;location;lat;lon;timestamp;P1;durP1;ratioP1;P2;durP2;ratioP2
64957;SDS011;51486;50.232;19.208;2023-04-15T00:02:36;4.47;;;2.77;;
64957;SDS011;51486;50.232;19.208;2023-04-15T00:05:22;4.57;;;2.90;;
64957;SDS011;51486;50.232;19.208;2023-04-15T00:08:08;4.17;;;2.33;;
64957;SDS011;51486;50.232;19.208;2023-04-15T00:10:54;5.07;;;2.67;;
64957;SDS011;51486;50.232;19.208;2023-04-15T00:13:40;9.77;;;3.33;;
64957;SDS011;51486;50.232;19.208;2023-04-15T00:16:26;5.37;;;2.93;;
64957;SDS011;51486;50.232;19.208;2023-04-15T00:19:12;6.93;;;3.43;;
64957;SDS011;51486;50.232;19.208;2023-04-15T00:21:58;7.73;;;3.80;;
64957;SDS011;51486;50.232;19.208;2023-04-15T00:24:45;14.60;;;5.97;;
64957;SDS011;51486;50.232;19.208;2023-04-15T00:27:30;9.93;;;4.10;;
64957;SDS011;51486;50.232;19.208;2023-04-15T00:30:16;6.93;;;3.23;;
64957;SDS011;51486;50.232;19.208;2023-04-15T00:33:02;6.27;;;3.00;;
64957;SDS011;51486;50.232;19.208;2023-04-15T00:35:48;6.90;;;2.93;;
64957;SDS011;51486;50.232;19.208;2023-04-15T00:38:35;7.00;;;3.40;;
64957;SDS011;51486;50.232;19.208;2023-04-15T00:41:22;11.63;;;3.20;;
64957;SDS011;51486;50.232;19.208;2023-04-15T00:44:08;5.20;;;3.43;;
64957;SDS011;51486;50.232;19.208;2023-04-15T00:46:54;12.90;;;3.17;;
64957;SDS011;51486;50.232;19.208;2023-04-15T00:49:41;8.10;;;3.30;;
64957;SDS011;51486;50.232;19.208;2023-04-15T00:52:27;13.00;;;2.87;;
64957;SDS011;51486;50.232;19.208;2023-04-15T00:55:13;7.50;;;3.90;;
64957;SDS011;51486;50.232;19.208;2023-04-15T00:58:00;8.03;;;4.47;;
64957;SDS011;51486;50.232;19.208;2023-04-15T01:00:46;11.30;;;5.03;;
64957;SDS011;51486;50.232;19.208;2023-04-15T01:03:32;7.80;;;4.00;;
64957;SDS011;51486;50.232;19.208;2023-04-15T01:06:17;7.97;;;3.97;;
64957;SDS011;51486;50.232;19.208;2023-04-15T01:09:03;12.93;;;5.17;;
64957;SDS011;51486;50.232;19.208;2023-04-15T01:11:49;11.83;;;4.43;;
64957;SDS011;51486;50.232;19.208;2023-04-15T01:14:35;11.87;;;3.63;;
64957;SDS011;51486;50.232;19.208;2023-04-15T01:17:21;8.93;;;3.23;;
64957;SDS011;51486;50.232;19.208;2023-04-15T01:20:07;13.20;;;3.10;;
64957;SDS011;51486;50.232;19.208;2023-04-15T01:22:56;11.57;;;4.13;;
64957;SDS011;51486;50.232;19.208;2023-04-15T01:25:43;11.77;;;5.73;;
64957;SDS011;51486;50.232;19.208;2023-04-15T01:28:32;10.93;;;6.43;;
64957;SDS011;51486;50.232;19.208;2023-04-15T01:31:18;9.60;;;5.07;;
64957;SDS011;51486;50.232;19.208;2023-04-15T01:34:03;10.50;;;5.77;;
64957;SDS011;51486;50.232;19.208;2023-04-15T01:36:49;14.80;;;6.53;;
64957;SDS011;51486;50.232;19.208;2023-04-15T01:39:35;13.87;;;5.23;;
64957;SDS011;51486;50.232;19.208;2023-04-15T01:42:21;8.80;;;4.63;;
64957;SDS011;51486;50.232;19.208;2023-04-15T01:45:07;6.40;;;3.83;;
64957;SDS011;51486;50.232;19.208;2023-04-15T01:47:53;7.10;;;4.00;;
64957;SDS011;51486;50.232;19.208;2023-04-15T01:50:39;6.30;;;2.97;;
64957;SDS011;51486;50.232;19.208;2023-04-15T01:53:25;8.07;;;3.87;;
64957;SDS011;51486;50.232;19.208;2023-04-15T01:56:10;7.03;;;3.77;;
64957;SDS011;51486;50.232;19.208;2023-04-15T01:58:56;8.47;;;4.63;;
64957;SDS011;51486;50.232;19.208;2023-04-15T02:01:42;6.27;;;4.07;;
64957;SDS011;51486;50.232;19.208;2023-04-15T02:04:29;9.90;;;4.47;;
64957;SDS011;51486;50.232;19.208;2023-04-15T02:07:15;10.30;;;4.60;;
64957;SDS011;51486;50.232;19.208;2023-04-15T02:10:01;11.57;;;5.00;;
64957;SDS011;51486;50.232;19.208;2023-04-15T02:12:47;7.97;;;4.50;;
64957;SDS011;51486;50.232;19.208;2023-04-15T02:15:32;8.40;;;4.63;;
64957;SDS011;51486;50.232;19.208;2023-04-15T02:18:18;9.77;;;5.20;;
64957;SDS011;51486;50.232;19.208;2023-04-15T02:21:04;11.53;;;5.53;;
64957;SDS011;51486;50.232;19.208;2023-04-15T02:23:51;17.17;;;6.33;;
64957;SDS011;51486;50.232;19.208;2023-04-15T02:26:38;18.03;;;7.53;;
64957;SDS011;51486;50.232;19.208;2023-04-15T02:29:24;15.97;;;7.73;;
64957;SDS011;51486;50.232;19.208;2023-04-15T02:32:10;14.73;;;7.13;;
64957;SDS011;51486;50.232;19.208;2023-04-15T02:34:56;13.97;;;6.73;;
64957;SDS011;51486;50.232;19.208;2023-04-15T02:37:47;20.27;;;8.87;;
64957;SDS011;51486;50.232;19.208;2023-04-15T02:40:32;22.93;;;9.60;;
64957;SDS011;51486;50.232;19.208;2023-04-15T02:43:18;20.70;;;9.13;;
64957;SDS011;51486;50.232;19.208;2023-04-15T02:46:04;19.33;;;8.70;;
64957;SDS011;51486;50.232;19.208;2023-04-15T02:48:50;20.43;;;9.00;;
64957;SDS011;51486;50.232;19.208;2023-04-15T02:51:37;24.07;;;10.50;;
64957;SDS011;51486;50.232;19.208;2023-04-15T02:54:23;25.90;;;9.77;;
64957;SDS011;51486;50.232;19.208;2023-04-15T02:57:10;18.60;;;9.00;;
64957;SDS011;51486;50.232;19.208;2023-04-15T02:59:57;25.37;;;9.70;;
64957;SDS011;51486;50.232;19.208;2023-04-15T03:05:56;27.87;;;10.00;;
64957;SDS011;51486;50.232;19.208;2023-04-15T03:08:42;21.23;;;10.77;;
64957;SDS011;51486;50.232;19.208;2023-04-15T03:11:28;16.50;;;8.77;;
64957;SDS011;51486;50.232;19.208;2023-04-15T03:14:13;15.07;;;7.73;;
64957;SDS011;51486;50.232;19.208;2023-04-15T03:16:59;17.40;;;7.57;;
64957;SDS011;51486;50.232;19.208;2023-04-15T03:19:45;13.53;;;6.33;;
64957;SDS011;51486;50.232;19.208;2023-04-15T03:22:31;11.77;;;6.13;;
64957;SDS011;51486;50.232;19.208;2023-04-15T03:25:17;8.77;;;4.23;;
64957;SDS011;51486;50.232;19.208;2023-04-15T03:28:03;6.43;;;3.90;;
64957;SDS011;51486;50.232;19.208;2023-04-15T03:30:49;7.33;;;4.07;;
64957;SDS011;51486;50.232;19.208;2023-04-15T03:33:35;5.27;;;3.77;;
64957;SDS011;51486;50.232;19.208;2023-04-15T03:36:20;6.87;;;3.60;;
64957;SDS011;51486;50.232;19.208;2023-04-15T03:39:06;8.27;;;3.57;;
64957;SDS011;51486;50.232;19.208;2023-04-15T03:41:52;8.27;;;4.67;;
64957;SDS011;51486;50.232;19.208;2023-04-15T03:44:38;7.23;;;3.70;;
64957;SDS011;51486;50.232;19.208;2023-04-15T03:47:23;8.50;;;4.47;;
64957;SDS011;51486;50.232;19.208;2023-04-15T03:50:09;6.87;;;3.93;;
64957;SDS011;51486;50.232;19.208;2023-04-15T03:52:55;13.23;;;6.10;;
64957;SDS011;51486;50.232;19.208;2023-04-15T03:55:41;13.37;;;6.30;;
64957;SDS011;51486;50.232;19.208;2023-04-15T03:58:27;15.37;;;5.57;;
64957;SDS011;51486;50.232;19.208;2023-04-15T04:01:12;8.50;;;5.13;;
64957;SDS011;51486;50.232;19.208;2023-04-15T04:03:58;12.43;;;6.07;;
64957;SDS011;51486;50.232;19.208;2023-04-15T04:06:44;12.03;;;6.13;;
64957;SDS011;51486;50.232;19.208;2023-04-15T04:09:30;10.40;;;5.20;;
64957;SDS011;51486;50.232;19.208;2023-04-15T04:12:16;11.17;;;5.00;;
64957;SDS011;51486;50.232;19.208;2023-04-15T04:15:03;8.17;;;5.17;;
64957;SDS011;51486;50.232;19.208;2023-04-15T04:17:50;9.50;;;5.23;;
64957;SDS011;51486;50.232;19.208;2023-04-15T04:20:35;11.83;;;4.53;;
64957;SDS011;51486;50.232;19.208;2023-04-15T04:23:21;15.63;;;6.40;;
64957;SDS011;51486;50.232;19.208;2023-04-15T04:26:07;13.77;;;5.77;;
64957;SDS011;51486;50.232;19.208;2023-04-15T04:28:53;12.90;;;5.77;;
64957;SDS011;51486;50.232;19.208;2023-04-15T04:31:38;16.13;;;6.17;;
64957;SDS011;51486;50.232;19.208;2023-04-15T04:34:24;6.20;;;4.20;;
64957;SDS011;51486;50.232;19.208;2023-04-15T04:37:10;6.13;;;3.40;;
64957;SDS011;51486;50.232;19.208;2023-04-15T04:39:55;5.43;;;2.93;;
64957;SDS011;51486;50.232;19.208;2023-04-15T04:42:41;8.90;;;3.83;;
64957;SDS011;51486;50.232;19.208;2023-04-15T04:45:27;4.60;;;2.43;;
64957;SDS011;51486;50.232;19.208;2023-04-15T04:48:12;3.97;;;2.00;;
64957;SDS011;51486;50.232;19.208;2023-04-15T04:50:58;4.73;;;2.10;;
64957;SDS011;51486;50.232;19.208;2023-04-15T04:53:44;4.80;;;1.90;;
64957;SDS011;51486;50.232;19.208;2023-04-15T04:56:30;4.77;;;2.30;;
64957;SDS011;51486;50.232;19.208;2023-04-15T04:59:15;2.47;;;1.63;;
64957;SDS011;51486;50.232;19.208;2023-04-15T05:02:01;4.33;;;2.00;;
64957;SDS011;51486;50.232;19.208;2023-04-15T05:04:48;8.77;;;2.50;;
64957;SDS011;51486;50.232;19.208;2023-04-15T05:07:36;4.83;;;2.27;;
64957;SDS011;51486;50.232;19.208;2023-04-15T05:10:23;3.77;;;2.03;;
64957;SDS011;51486;50.232;19.208;2023-04-15T05:13:09;2.90;;;1.60;;
64957;SDS011;51486;50.232;19.208;2023-04-15T05:15:55;3.00;;;1.93;;
64957;SDS011;51486;50.232;19.208;2023-04-15T05:18:41;2.20;;;1.37;;
64957;SDS011;51486;50.232;19.208;2023-04-15T05:21:26;3.90;;;2.57;;
64957;SDS011;51486;50.232;19.208;2023-04-15T05:24:12;3.90;;;2.43;;
64957;SDS011;51486;50.232;19.208;2023-04-15T05:26:58;5.57;;;2.77;;
64957;SDS011;51486;50.232;19.208;2023-04-15T05:29:45;4.60;;;2.37;;
64957;SDS011;51486;50.232;19.208;2023-04-15T05:32:31;19.17;;;2.93;;
64957;SDS011;51486;50.232;19.208;2023-04-15T05:35:16;6.27;;;2.57;;
64957;SDS011;51486;50.232;19.208;2023-04-15T05:38:02;5.83;;;3.17;;
64957;SDS011;51486;50.232;19.208;2023-04-15T05:40:48;8.17;;;2.90;;
64957;SDS011;51486;50.232;19.208;2023-04-15T05:43:34;5.40;;;2.50;;
64957;SDS011;51486;50.232;19.208;2023-04-15T05:46:19;4.87;;;2.43;;
64957;SDS011;51486;50.232;19.208;2023-04-15T05:49:05;6.57;;;3.20;;
64957;SDS011;51486;50.232;19.208;2023-04-15T05:51:51;10.13;;;4.13;;
64957;SDS011;51486;50.232;19.208;2023-04-15T05:54:37;7.60;;;3.80;;
64957;SDS011;51486;50.232;19.208;2023-04-15T05:57:23;7.37;;;4.03;;
64957;SDS011;51486;50.232;19.208;2023-04-15T06:00:09;12.30;;;4.47;;
64957;SDS011;51486;50.232;19.208;2023-04-15T06:02:55;7.20;;;4.30;;
64957;SDS011;51486;50.232;19.208;2023-04-15T06:05:43;8.10;;;4.03;;
64957;SDS011;51486;50.232;19.208;2023-04-15T06:08:30;10.73;;;4.40;;
64957;SDS011;51486;50.232;19.208;2023-04-15T06:11:15;9.03;;;4.47;;
64957;SDS011;51486;50.232;19.208;2023-04-15T06:14:01;12.47;;;3.63;;
64957;SDS011;51486;50.232;19.208;2023-04-15T06:16:47;9.27;;;3.73;;
64957;SDS011;51486;50.232;19.208;2023-04-15T06:19:33;6.70;;;3.27;;
64957;SDS011;51486;50.232;19.208;2023-04-15T06:22:19;13.50;;;4.00;;
64957;SDS011;51486;50.232;19.208;2023-04-15T06:25:05;6.83;;;3.47;;
64957;SDS011;51486;50.232;19.208;2023-04-15T06:27:52;6.27;;;4.03;;
64957;SDS011;51486;50.232;19.208;2023-04-15T06:30:38;4.67;;;2.90;;
64957;SDS011;51486;50.232;19.208;2023-04-15T06:33:24;5.83;;;2.43;;
64957;SDS011;51486;50.232;19.208;2023-04-15T06:36:10;6.90;;;2.87;;
64957;SDS011;51486;50.232;19.208;2023-04-15T06:38:55;7.83;;;3.40;;
64957;SDS011;51486;50.232;19.208;2023-04-15T06:41:41;5.07;;;2.93;;
64957;SDS011;51486;50.232;19.208;2023-04-15T06:44:28;6.03;;;2.60;;
64957;SDS011;51486;50.232;19.208;2023-04-15T06:47:13;4.47;;;2.87;;
64957;SDS011;51486;50.232;19.208;2023-04-15T06:49:59;5.27;;;2.60;;
64957;SDS011;51486;50.232;19.208;2023-04-15T06:52:45;2.40;;;2.20;;
64957;SDS011;51486;50.232;19.208;2023-04-15T06:55:34;5.77;;;2.80;;
64957;SDS011;51486;50.232;19.208;2023-04-15T06:58:20;3.70;;;2.43;;
64957;SDS011;51486;50.232;19.208;2023-04-15T07:01:06;3.30;;;1.97;;
64957;SDS011;51486;50.232;19.208;2023-04-15T07:03:51;6.37;;;2.53;;
64957;SDS011;51486;50.232;19.208;2023-04-15T07:06:37;3.60;;;2.10;;
64957;SDS011;51486;50.232;19.208;2023-04-15T07:09:23;5.03;;;3.03;;
64957;SDS011;51486;50.232;19.208;2023-04-15T07:12:09;4.97;;;2.40;;
64957;SDS011;51486;50.232;19.208;2023-04-15T07:14:54;3.83;;;2.37;;
64957;SDS011;51486;50.232;19.208;2023-04-15T07:17:40;5.90;;;2.40;;
64957;SDS011;51486;50.232;19.208;2023-04-15T07:20:27;2.90;;;1.97;;
64957;SDS011;51486;50.232;19.208;2023-04-15T07:23:13;4.03;;;1.80;;
64957;SDS011;51486;50.232;19.208;2023-04-15T07:25:58;4.87;;;1.97;;
64957;SDS011;51486;50.232;19.208;2023-04-15T07:28:45;4.30;;;2.67;;
64957;SDS011;51486;50.232;19.208;2023-04-15T07:31:31;4.20;;;1.80;;
64957;SDS011;51486;50.232;19.208;2023-04-15T07:34:18;3.77;;;1.80;;
64957;SDS011;51486;50.232;19.208;2023-04-15T07:37:05;2.93;;;1.73;;
64957;SDS011;51486;50.232;19.208;2023-04-15T07:39:50;1.97;;;1.10;;
64957;SDS011;51486;50.232;19.208;2023-04-15T07:42:37;1.30;;;1.10;;
64957;SDS011;51486;50.232;19.208;2023-04-15T07:45:23;2.87;;;1.60;;
64957;SDS011;51486;50.232;19.208;2023-04-15T07:48:08;2.83;;;1.70;;
64957;SDS011;51486;50.232;19.208;2023-04-15T07:50:54;2.00;;;0.93;;
64957;SDS011;51486;50.232;19.208;2023-04-15T07:53:40;1.63;;;1.40;;
64957;SDS011;51486;50.232;19.208;2023-04-15T07:56:26;3.70;;;1.70;;
64957;SDS011;51486;50.232;19.208;2023-04-15T07:59:12;4.93;;;1.53;;
64957;SDS011;51486;50.232;19.208;2023-04-15T08:01:59;2.40;;;1.27;;
64957;SDS011;51486;50.232;19.208;2023-04-15T08:04:45;1.20;;;1.00;;
64957;SDS011;51486;50.232;19.208;2023-04-15T08:07:31;1.73;;;1.00;;
64957;SDS011;51486;50.232;19.208;2023-04-15T08:10:17;1.23;;;0.87;;
64957;SDS011;51486;50.232;19.208;2023-04-15T08:13:02;1.20;;;1.00;;
64957;SDS011;51486;50.232;19.208;2023-04-15T08:15:52;3.00;;;1.30;;
64957;SDS011;51486;50.232;19.208;2023-04-15T08:18:58;4.47;;;1.07;;
64957;SDS011;51486;50.232;19.208;2023-04-15T08:21:43;3.03;;;1.50;;
64957;SDS011;51486;50.232;19.208;2023-04-15T08:24:30;2.90;;;1.33;;
64957;SDS011;51486;50.232;19.208;2023-04-15T08:27:17;1.33;;;1.07;;
64957;SDS011;51486;50.232;19.208;2023-04-15T08:30:03;3.47;;;1.47;;
64957;SDS011;51486;50.232;19.208;2023-04-15T08:32:50;3.00;;;1.47;;
64957;SDS011;51486;50.232;19.208;2023-04-15T08:35:36;2.00;;;1.30;;
64957;SDS011;51486;50.232;19.208;2023-04-15T08:38:22;2.80;;;1.63;;
64957;SDS011;51486;50.232;19.208;2023-04-15T08:41:17;1.10;;;0.90;;
64957;SDS011;51486;50.232;19.208;2023-04-15T08:44:08;2.57;;;1.53;;
64957;SDS011;51486;50.232;19.208;2023-04-15T08:46:55;1.90;;;1.27;;
64957;SDS011;51486;50.232;19.208;2023-04-15T08:49:41;3.27;;;1.00;;
64957;SDS011;51486;50.232;19.208;2023-04-15T08:52:29;1.53;;;1.20;;
64957;SDS011;51486;50.232;19.208;2023-04-15T08:55:15;2.30;;;1.23;;
64957;SDS011;51486;50.232;19.208;2023-04-15T08:58:02;2.20;;;0.90;;
64957;SDS011;51486;50.232;19.208;2023-04-15T09:00:48;0.90;;;0.77;;
64957;SDS011;51486;50.232;19.208;2023-04-15T09:03:34;0.70;;;0.70;;
64957;SDS011;51486;50.232;19.208;2023-04-15T09:06:20;2.40;;;0.97;;
64957;SDS011;51486;50.232;19.208;2023-04-15T09:09:07;1.63;;;0.60;;
64957;SDS011;51486;50.232;19.208;2023-04-15T09:11:52;0.83;;;0.80;;
64957;SDS011;51486;50.232;19.208;2023-04-15T09:14:39;5.00;;;0.70;;
64957;SDS011;51486;50.232;19.208;2023-04-15T09:17:25;0.63;;;0.60;;
64957;SDS011;51486;50.232;19.208;2023-04-15T09:20:12;0.60;;;0.57;;
64957;SDS011;51486;50.232;19.208;2023-04-15T09:22:59;0.80;;;0.67;;
64957;SDS011;51486;50.232;19.208;2023-04-15T09:25:57;0.80;;;0.60;;
64957;SDS011;51486;50.232;19.208;2023-04-15T09:28:43;0.80;;;0.70;;
64957;SDS011;51486;50.232;19.208;2023-04-15T09:31:28;1.10;;;0.73;;
64957;SDS011;51486;50.232;19.208;2023-04-15T09:34:15;0.37;;;0.37;;
64957;SDS011;51486;50.232;19.208;2023-04-15T09:37:02;0.80;;;0.70;;
64957;SDS011;51486;50.232;19.208;2023-04-15T09:39:49;0.90;;;0.60;;
64957;SDS011;51486;50.232;19.208;2023-04-15T09:42:36;0.60;;;0.60;;
64957;SDS011;51486;50.232;19.208;2023-04-15T09:45:22;1.37;;;1.00;;
64957;SDS011;51486;50.232;19.208;2023-04-15T09:51:13;1.43;;;0.77;;
64957;SDS011;51486;50.232;19.208;2023-04-15T09:53:59;4.53;;;1.60;;
64957;SDS011;51486;50.232;19.208;2023-04-15T09:56:45;11.33;;;3.57;;
64957;SDS011;51486;50.232;19.208;2023-04-15T09:59:31;5.47;;;2.50;;
64957;SDS011;51486;50.232;19.208;2023-04-15T10:02:17;4.70;;;1.57;;
64957;SDS011;51486;50.232;19.208;2023-04-15T10:05:05;2.20;;;1.40;;
64957;SDS011;51486;50.232;19.208;2023-04-15T10:07:51;4.80;;;1.70;;
64957;SDS011;51486;50.232;19.208;2023-04-15T10:10:37;2.23;;;1.40;;
64957;SDS011;51486;50.232;19.208;2023-04-15T10:13:24;2.90;;;1.50;;
64957;SDS011;51486;50.232;19.208;2023-04-15T10:16:13;2.20;;;1.50;;
64957;SDS011;51486;50.232;19.208;2023-04-15T10:19:01;2.40;;;1.60;;
64957;SDS011;51486;50.232;19.208;2023-04-15T10:21:48;2.30;;;1.30;;
64957;SDS011;51486;50.232;19.208;2023-04-15T10:24:35;1.33;;;0.90;;
64957;SDS011;51486;50.232;19.208;2023-04-15T10:27:23;1.87;;;1.27;;
64957;SDS011;51486;50.232;19.208;2023-04-15T10:30:09;1.77;;;1.27;;
64957;SDS011;51486;50.232;19.208;2023-04-15T10:32:55;3.63;;;1.67;;
64957;SDS011;51486;50.232;19.208;2023-04-15T10:35:41;1.73;;;1.13;;
64957;SDS011;51486;50.232;19.208;2023-04-15T10:38:38;2.17;;;1.00;;
64957;SDS011;51486;50.232;19.208;2023-04-15T10:41:27;3.77;;;1.50;;
64957;SDS011;51486;50.232;19.208;2023-04-15T10:44:18;2.00;;;1.13;;
64957;SDS011;51486;50.232;19.208;2023-04-15T10:47:17;1.40;;;1.10;;
64957;SDS011;51486;50.232;19.208;2023-04-15T10:50:04;3.57;;;1.30;;
64957;SDS011;51486;50.232;19.208;2023-04-15T10:52:51;1.60;;;1.10;;
64957;SDS011;51486;50.232;19.208;2023-04-15T10:55:37;2.37;;;1.37;;
64957;SDS011;51486;50.232;19.208;2023-04-15T10:58:23;4.90;;;1.00;;
64957;SDS011;51486;50.232;19.208;2023-04-15T11:01:09;1.53;;;1.00;;
64957;SDS011;51486;50.232;19.208;2023-04-15T11:03:55;1.27;;;1.00;;
64957;SDS011;51486;50.232;19.208;2023-04-15T11:06:44;0.80;;;0.80;;
64957;SDS011;51486;50.232;19.208;2023-04-15T11:09:30;2.80;;;1.37;;
64957;SDS011;51486;50.232;19.208;2023-04-15T11:12:18;2.30;;;1.30;;
64957;SDS011;51486;50.232;19.208;2023-04-15T11:18:29;2.23;;;1.27;;
64957;SDS011;51486;50.232;19.208;2023-04-15T11:21:17;2.63;;;1.63;;
64957;SDS011;51486;50.232;19.208;2023-04-15T11:24:04;1.13;;;0.90;;
64957;SDS011;51486;50.232;19.208;2023-04-15T11:26:49;1.40;;;1.23;;
64957;SDS011;51486;50.232;19.208;2023-04-15T11:29:35;2.57;;;1.70;;
64957;SDS011;51486;50.232;19.208;2023-04-15T11:32:21;1.63;;;1.17;;
64957;SDS011;51486;50.232;19.208;2023-04-15T11:35:07;3.40;;;1.67;;
64957;SDS011;51486;50.232;19.208;2023-04-15T11:37:53;3.27;;;1.83;;
64957;SDS011;51486;50.232;19.208;2023-04-15T11:40:40;4.97;;;2.00;;
64957;SDS011;51486;50.232;19.208;2023-04-15T11:43:27;2.63;;;1.43;;
64957;SDS011;51486;50.232;19.208;2023-04-15T11:46:16;4.43;;;1.63;;
64957;SDS011;51486;50.232;19.208;2023-04-15T11:49:02;3.87;;;1.67;;
64957;SDS011;51486;50.232;19.208;2023-04-15T11:51:49;4.37;;;1.53;;
64957;SDS011;51486;50.232;19.208;2023-04-15T11:54:35;4.53;;;1.63;;
64957;SDS011;51486;50.232;19.208;2023-04-15T11:57:21;1.93;;;1.20;;
64957;SDS011;51486;50.232;19.208;2023-04-15T12:00:15;3.23;;;1.67;;
64957;SDS011;51486;50.232;19.208;2023-04-15T12:03:11;3.60;;;0.90;;
64957;SDS011;51486;50.232;19.208;2023-04-15T12:09:17;4.40;;;1.80;;
64957;SDS011;51486;50.232;19.208;2023-04-15T12:12:04;2.40;;;1.37;;
64957;SDS011;51486;50.232;19.208;2023-04-15T12:14:50;1.60;;;1.27;;
64957;SDS011;51486;50.232;19.208;2023-04-15T12:17:36;1.83;;;1.20;;
64957;SDS011;51486;50.232;19.208;2023-04-15T12:20:24;1.67;;;1.10;;
64957;SDS011;51486;50.232;19.208;2023-04-15T12:23:10;3.77;;;1.13;;
64957;SDS011;51486;50.232;19.208;2023-04-15T12:25:56;7.63;;;1.40;;
64957;SDS011;51486;50.232;19.208;2023-04-15T12:28:42;3.07;;;1.20;;
64957;SDS011;51486;50.232;19.208;2023-04-15T12:31:28;2.60;;;1.17;;
64957;SDS011;51486;50.232;19.208;2023-04-15T12:34:14;2.53;;;1.10;;
64957;SDS011;51486;50.232;19.208;2023-04-15T12:37:01;1.40;;;1.20;;
64957;SDS011;51486;50.232;19.208;2023-04-15T12:39:48;2.30;;;1.10;;
64957;SDS011;51486;50.232;19.208;2023-04-15T12:42:34;6.27;;;1.53;;
64957;SDS011;51486;50.232;19.208;2023-04-15T12:45:20;2.80;;;1.40;;
64957;SDS011;51486;50.232;19.208;2023-04-15T12:48:06;1.17;;;0.90;;
64957;SDS011;51486;50.232;19.208;2023-04-15T12:50:53;6.63;;;1.30;;
64957;SDS011;51486;50.232;19.208;2023-04-15T12:53:39;1.70;;;1.43;;
64957;SDS011;51486;50.232;19.208;2023-04-15T12:56:24;1.33;;;0.90;;
64957;SDS011;51486;50.232;19.208;2023-04-15T12:59:11;1.77;;;1.10;;
64957;SDS011;51486;50.232;19.208;2023-04-15T13:01:57;1.80;;;1.37;;
64957;SDS011;51486;50.232;19.208;2023-04-15T13:04:44;3.07;;;1.43;;
64957;SDS011;51486;50.232;19.208;2023-04-15T13:07:30;1.50;;;0.90;;
64957;SDS011;51486;50.232;19.208;2023-04-15T13:10:16;2.13;;;1.37;;
64957;SDS011;51486;50.232;19.208;2023-04-15T13:13:02;1.30;;;1.00;;
64957;SDS011;51486;50.232;19.208;2023-04-15T13:15:47;1.40;;;1.17;;
64957;SDS011;51486;50.232;19.208;2023-04-15T13:18:33;1.93;;;1.17;;
64957;SDS011;51486;50.232;19.208;2023-04-15T13:21:19;1.30;;;0.90;;
64957;SDS011;51486;50.232;19.208;2023-04-15T13:24:05;2.03;;;1.20;;
64957;SDS011;51486;50.232;19.208;2023-04-15T13:26:51;3.17;;;1.00;;
64957;SDS011;51486;50.232;19.208;2023-04-15T13:29:37;2.30;;;1.37;;
64957;SDS011;51486;50.232;19.208;2023-04-15T13:32:24;3.67;;;1.27;;
64957;SDS011;51486;50.232;19.208;2023-04-15T13:35:10;1.40;;;1.10;;
64957;SDS011;51486;50.232;19.208;2023-04-15T13:37:56;1.00;;;0.90;;
64957;SDS011;51486;50.232;19.208;2023-04-15T13:40:42;2.50;;;1.60;;
64957;SDS011;51486;50.232;19.208;2023-04-15T13:43:27;2.23;;;1.10;;
64957;SDS011;51486;50.232;19.208;2023-04-15T13:46:13;1.70;;;1.13;;
64957;SDS011;51486;50.232;19.208;2023-04-15T13:48:59;1.10;;;0.90;;
64957;SDS011;51486;50.232;19.208;2023-04-15T13:51:45;1.77;;;1.27;;
64957;SDS011;51486;50.232;19.208;2023-04-15T13:54:31;1.03;;;0.93;;
64957;SDS011;51486;50.232;19.208;2023-04-15T13:57:16;1.80;;;0.77;;
64957;SDS011;51486;50.232;19.208;2023-04-15T14:00:03;2.03;;;1.00;;
64957;SDS011;51486;50.232;19.208;2023-04-15T14:02:50;2.10;;;1.10;;
64957;SDS011;51486;50.232;19.208;2023-04-15T14:05:36;0.60;;;0.60;;
64957;SDS011;51486;50.232;19.208;2023-04-15T14:08:22;4.47;;;1.77;;
64957;SDS011;51486;50.232;19.208;2023-04-15T14:11:09;4.53;;;2.27;;
64957;SDS011;51486;50.232;19.208;2023-04-15T14:13:55;4.67;;;2.17;;
64957;SDS011;51486;50.232;19.208;2023-04-15T14:16:41;6.17;;;2.73;;
64957;SDS011;51486;50.232;19.208;2023-04-15T14:19:26;3.43;;;1.87;;
64957;SDS011;51486;50.232;19.208;2023-04-15T14:22:12;5.27;;;2.50;;
64957;SDS011;51486;50.232;19.208;2023-04-15T14:24:58;2.53;;;2.00;;
64957;SDS011;51486;50.232;19.208;2023-04-15T14:27:44;2.50;;;1.47;;
64957;SDS011;51486;50.232;19.208;2023-04-15T14:30:30;4.60;;;1.90;;
64957;SDS011;51486;50.232;19.208;2023-04-15T14:33:17;4.07;;;1.80;;
64957;SDS011;51486;50.232;19.208;2023-04-15T14:36:03;3.57;;;2.13;;
64957;SDS011;51486;50.232;19.208;2023-04-15T14:38:49;3.40;;;1.60;;
64957;SDS011;51486;50.232;19.208;2023-04-15T14:41:35;10.07;;;1.83;;
64957;SDS011;51486;50.232;19.208;2023-04-15T14:44:21;1.60;;;1.17;;
64957;SDS011;51486;50.232;19.208;2023-04-15T14:47:08;1.63;;;1.47;;
64957;SDS011;51486;50.232;19.208;2023-04-15T14:49:54;2.40;;;1.47;;
64957;SDS011;51486;50.232;19.208;2023-04-15T14:52:39;1.77;;;1.17;;
64957;SDS011;51486;50.232;19.208;2023-04-15T14:55:25;1.67;;;1.00;;
64957;SDS011;51486;50.232;19.208;2023-04-15T14:58:11;0.97;;;0.83;;
64957;SDS011;51486;50.232;19.208;2023-04-15T15:00:57;1.53;;;1.20;;
64957;SDS011;51486;50.232;19.208;2023-04-15T15:03:43;1.07;;;0.97;;
64957;SDS011;51486;50.232;19.208;2023-04-15T15:06:29;1.57;;;1.03;;
64957;SDS011;51486;50.232;19.208;2023-04-15T15:09:15;60.00;;;4.93;;
64957;SDS011;51486;50.232;19.208;2023-04-15T15:12:01;3.80;;;1.27;;
64957;SDS011;51486;50.232;19.208;2023-04-15T15:14:47;1.63;;;1.07;;
64957;SDS011;51486;50.232;19.208;2023-04-15T15:17:33;2.40;;;1.63;;
64957;SDS011;51486;50.232;19.208;2023-04-15T15:20:20;2.43;;;1.37;;
64957;SDS011;51486;50.232;19.208;2023-04-15T15:23:05;2.80;;;1.20;;
64957;SDS011;51486;50.232;19.208;2023-04-15T15:25:51;3.00;;;1.20;;
64957;SDS011;51486;50.232;19.208;2023-04-15T15:28:37;1.20;;;1.10;;
64957;SDS011;51486;50.232;19.208;2023-04-15T15:31:23;1.20;;;1.07;;
64957;SDS011;51486;50.232;19.208;2023-04-15T15:34:08;1.37;;;1.20;;
64957;SDS011;51486;50.232;19.208;2023-04-15T15:36:54;1.93;;;1.43;;
64957;SDS011;51486;50.232;19.208;2023-04-15T15:39:41;9.90;;;3.23;;
64957;SDS011;51486;50.232;19.208;2023-04-15T15:42:26;7.00;;;3.03;;
64957;SDS011;51486;50.232;19.208;2023-04-15T15:45:15;4.03;;;2.00;;
64957;SDS011;51486;50.232;19.208;2023-04-15T15:48:01;4.30;;;2.27;;
64957;SDS011;51486;50.232;19.208;2023-04-15T15:50:47;1.80;;;1.17;;
64957;SDS011;51486;50.232;19.208;2023-04-15T15:53:33;4.57;;;1.53;;
64957;SDS011;51486;50.232;19.208;2023-04-15T15:56:19;2.07;;;1.47;;
64957;SDS011;51486;50.232;19.208;2023-04-15T15:59:05;4.10;;;1.70;;
64957;SDS011;51486;50.232;19.208;2023-04-15T16:01:51;5.23;;;2.00;;
64957;SDS011;51486;50.232;19.208;2023-04-15T16:04:37;8.37;;;3.27;;
64957;SDS011;51486;50.232;19.208;2023-04-15T16:07:23;3.17;;;2.00;;
64957;SDS011;51486;50.232;19.208;2023-04-15T16:10:09;4.00;;;2.03;;
64957;SDS011;51486;50.232;19.208;2023-04-15T16:12:55;4.73;;;2.00;;
64957;SDS011;51486;50.232;19.208;2023-04-15T16:15:41;2.27;;;1.50;;
64957;SDS011;51486;50.232;19.208;2023-04-15T16:18:26;4.17;;;2.10;;
64957;SDS011;51486;50.232;19.208;2023-04-15T16:21:13;2.93;;;2.07;;
64957;SDS011;51486;50.232;19.208;2023-04-15T16:24:00;6.27;;;2.07;;
64957;SDS011;51486;50.232;19.208;2023-04-15T16:26:46;3.47;;;1.83;;
64957;SDS011;51486;50.232;19.208;2023-04-15T16:29:31;2.80;;;1.73;;
64957;SDS011;51486;50.232;19.208;2023-04-15T16:32:18;3.20;;;2.53;;
64957;SDS011;51486;50.232;19.208;2023-04-15T16:35:04;5.60;;;3.37;;
64957;SDS011;51486;50.232;19.208;2023-04-15T16:37:50;4.47;;;2.47;;
64957;SDS011;51486;50.232;19.208;2023-04-15T16:40:36;6.93;;;3.47;;